Time;durP1;ratioP1;P1;durP2;ratioP2;P2;SDS_P1;SDS_P2;PMS_P1;PMS_P2;Temp;Humidity;BMP_temperature;BMP_pressure;BME280_temperature;BME280_humidity;BME280_pressure;Samples;Min_cycle;Max_cycle;Signal;HPM_P1;HPM_P2
2022/03/14 00:02:11;;;;;;;16.87;10.23;;;9.30;52.30;;;;;;5071605;28;20261;-82
2022/03/14 00:04:38;;;;;;;14.17;10.53;;;9.20;52.10;;;;;;5071581;28;20249;-82
2022/03/14 00:07:05;;;;;;;14.17;10.43;;;9.20;52.20;;;;;;5080680;28;20794;-81
2022/03/14 00:09:31;;;;;;;14.27;10.23;;;9.20;52.20;;;;;;5091575;28;20207;-81
2022/03/14 00:11:59;;;;;;;14.17;10.37;;;9.20;52.50;;;;;;5091034;28;20211;-82
2022/03/14 00:14:25;;;;;;;13.63;10.80;;;9.10;52.50;;;;;;5089204;28;20210;-81
2022/03/14 00:16:52;;;;;;;15.63;10.53;;;9.10;52.50;;;;;;5070820;28;20291;-81
2022/03/14 00:19:21;;;;;;;15.90;10.93;;;9.10;52.60;;;;;;5070975;28;20269;-80
2022/03/14 00:21:49;;;;;;;15.67;10.10;;;9.10;52.60;;;;;;5089779;28;20214;-81
2022/03/14 00:24:16;;;;;;;14.07;10.67;;;9.10;52.60;;;;;;5091064;28;20239;-81
2022/03/14 00:26:43;;;;;;;14.53;10.00;;;9.00;52.50;;;;;;5091280;28;20653;-81
2022/03/14 00:29:10;;;;;;;15.27;10.07;;;9.00;52.80;;;;;;5090552;28;20263;-81
2022/03/14 00:31:37;;;;;;;15.50;10.43;;;9.00;52.80;;;;;;5091079;28;20206;-81
2022/03/14 00:34:04;;;;;;;16.90;10.47;;;9.00;52.90;;;;;;5090989;28;20207;-80
2022/03/14 00:36:32;;;;;;;15.03;10.43;;;8.90;52.70;;;;;;5090831;28;20202;-81
2022/03/14 00:38:59;;;;;;;14.57;10.17;;;8.90;52.70;;;;;;5090625;28;20230;-81
2022/03/14 00:41:25;;;;;;;15.83;9.53;;;8.80;52.90;;;;;;5089830;28;20252;-80
2022/03/14 00:43:52;;;;;;;14.60;10.20;;;8.80;52.90;;;;;;5090521;28;20264;-80
2022/03/14 00:46:19;;;;;;;14.03;10.30;;;8.80;53.10;;;;;;5090478;28;20239;-81
2022/03/14 00:48:47;;;;;;;15.70;10.97;;;8.80;53.20;;;;;;5082649;28;20234;-81
2022/03/14 00:51:14;;;;;;;13.13;10.00;;;8.70;53.20;;;;;;5070088;28;21011;-81
2022/03/14 00:53:42;;;;;;;16.93;10.87;;;8.70;53.20;;;;;;5070570;28;20203;-81
2022/03/14 00:56:09;;;;;;;14.53;10.67;;;8.70;53.20;;;;;;5070398;28;20207;-80
2022/03/14 00:58:36;;;;;;;15.07;9.87;;;8.70;53.20;;;;;;5070458;28;20227;-80
2022/03/14 01:01:06;;;;;;;14.57;10.13;;;8.70;53.30;;;;;;5069993;28;20208;-81
2022/03/14 01:03:33;;;;;;;13.83;10.10;;;8.60;53.50;;;;;;5081971;28;20209;-81
2022/03/14 01:06:00;;;;;;;13.10;9.97;;;8.60;53.50;;;;;;5090042;28;20207;-81
2022/03/14 01:08:30;;;;;;;13.30;10.10;;;8.60;53.60;;;;;;5090412;28;20199;-80
2022/03/14 01:10:59;;;;;;;14.53;9.97;;;8.60;53.60;;;;;;5086177;28;20252;-81
2022/03/14 01:13:25;;;;;;;16.90;10.27;;;8.60;53.50;;;;;;5070303;28;20200;-81
2022/03/14 01:15:52;;;;;;;14.83;10.43;;;8.60;53.90;;;;;;5084421;28;20310;-82
2022/03/14 01:18:19;;;;;;;15.80;10.80;;;8.50;53.90;;;;;;5079996;28;20239;-82
2022/03/14 01:20:45;;;;;;;16.20;10.20;;;8.50;54.10;;;;;;5090124;28;20207;-80
2022/03/14 01:23:12;;;;;;;13.57;10.13;;;8.40;54.20;;;;;;5089706;28;20253;-81
2022/03/14 01:25:40;;;;;;;17.77;10.37;;;8.40;54.40;;;;;;5090122;28;20207;-80
2022/03/14 01:28:08;;;;;;;15.83;9.40;;;8.30;54.30;;;;;;5089728;28;20260;-81
2022/03/14 01:30:35;;;;;;;14.73;10.10;;;8.30;54.20;;;;;;5089766;28;20207;-81
2022/03/14 01:33:03;;;;;;;14.43;10.50;;;8.30;54.30;;;;;;5089775;28;20207;-85
2022/03/14 01:35:30;;;;;;;14.30;10.07;;;8.30;54.10;;;;;;5089784;28;20214;-81
2022/03/14 01:37:57;;;;;;;15.93;10.43;;;8.30;54.30;;;;;;5089132;28;20696;-82
2022/03/14 01:40:25;;;;;;;15.43;10.40;;;8.30;54.30;;;;;;5089482;28;20253;-82
2022/03/14 01:42:52;;;;;;;14.03;10.30;;;8.20;54.20;;;;;;5089636;28;20203;-81
2022/03/14 01:45:22;;;;;;;15.13;9.93;;;8.20;54.40;;;;;;5089308;28;20271;-81
2022/03/14 01:47:50;;;;;;;14.27;10.13;;;8.20;54.50;;;;;;5089624;28;20720;-82
2022/03/14 01:50:17;;;;;;;17.10;10.53;;;8.20;54.50;;;;;;5089609;28;20245;-81
2022/03/14 01:52:45;;;;;;;15.43;10.23;;;8.10;54.50;;;;;;5088975;28;20649;-81
2022/03/14 01:55:13;;;;;;;14.13;10.57;;;8.20;55.10;;;;;;5088946;28;20215;-80
2022/03/14 01:57:40;;;;;;;15.60;9.60;;;8.20;54.60;;;;;;5089407;28;20211;-81
2022/03/14 02:00:10;;;;;;;13.97;9.97;;;8.10;54.70;;;;;;5089580;28;20194;-83
2022/03/14 02:02:38;;;;;;;14.17;9.40;;;8.10;54.60;;;;;;5090180;28;20199;-84
2022/03/14 02:05:05;;;;;;;16.10;10.57;;;8.00;54.70;;;;;;5089309;28;20263;-80
2022/03/14 02:07:32;;;;;;;15.87;10.33;;;8.00;54.70;;;;;;5082429;28;20243;-79
2022/03/14 02:09:59;;;;;;;12.80;9.63;;;7.90;54.90;;;;;;5068938;28;20242;-78
2022/03/14 02:12:26;;;;;;;13.50;10.20;;;7.90;54.90;;;;;;5068829;28;20214;-79
2022/03/14 02:14:52;;;;;;;13.50;10.27;;;7.90;55.00;;;;;;5074826;28;20206;-80
2022/03/14 02:17:20;;;;;;;13.73;9.80;;;7.90;54.80;;;;;;5089083;28;20207;-80
2022/03/14 02:19:49;;;;;;;17.00;10.80;;;7.90;54.80;;;;;;5089606;28;20245;-84
2022/03/14 02:22:17;;;;;;;15.27;10.20;;;7.90;55.10;;;;;;5090457;28;20785;-85
2022/03/14 02:24:46;;;;;;;15.20;10.33;;;7.90;55.00;;;;;;5090772;28;20241;-84
2022/03/14 02:27:13;;;;;;;16.10;10.00;;;7.90;55.00;;;;;;5090020;28;20626;-84
2022/03/14 02:29:41;;;;;;;14.87;9.90;;;7.90;55.10;;;;;;5079973;28;20218;-84
2022/03/14 02:32:09;;;;;;;13.37;9.67;;;7.80;55.20;;;;;;5089976;28;20214;-85
2022/03/14 02:34:35;;;;;;;13.57;9.50;;;7.80;55.30;;;;;;5090078;28;20211;-84
2022/03/14 02:37:04;;;;;;;14.83;9.77;;;7.70;55.30;;;;;;5089612;28;20206;-84
2022/03/14 02:39:33;;;;;;;13.30;9.53;;;7.70;55.30;;;;;;5089088;28;20234;-81
2022/03/14 02:42:00;;;;;;;13.53;9.33;;;7.70;55.40;;;;;;5074204;28;20207;-81
2022/03/14 02:44:27;;;;;;;14.30;9.70;;;7.60;55.30;;;;;;5071041;28;21011;-81
2022/03/14 02:46:54;;;;;;;12.67;9.30;;;7.60;55.30;;;;;;5089346;28;20265;-86
2022/03/14 02:49:21;;;;;;;13.43;9.40;;;7.60;55.60;;;;;;5089826;28;20335;-84
2022/03/14 02:51:48;;;;;;;14.57;9.70;;;7.50;55.60;;;;;;5089512;28;20206;-84
2022/03/14 02:54:15;;;;;;;13.63;9.63;;;7.60;55.60;;;;;;5089353;28;20199;-85
2022/03/14 02:56:43;;;;;;;15.23;9.77;;;7.60;55.60;;;;;;5089216;28;20234;-84
2022/03/14 02:59:10;;;;;;;13.73;8.73;;;7.60;55.50;;;;;;5089133;28;20235;-85
2022/03/14 03:01:37;;;;;;;13.63;10.17;;;7.50;55.70;;;;;;5089318;28;20210;-83
2022/03/14 03:04:04;;;;;;;13.73;10.00;;;7.50;55.70;;;;;;5080016;28;20678;-82
2022/03/14 03:06:32;;;;;;;13.97;9.20;;;7.60;55.70;;;;;;5072442;28;20218;-79
2022/03/14 03:09:03;;;;;;;12.27;9.07;;;7.50;55.70;;;;;;5072849;28;20211;-79
2022/03/14 03:11:30;;;;;;;13.63;9.70;;;7.40;55.90;;;;;;5088961;28;20207;-79
2022/03/14 03:13:59;;;;;;;13.77;9.90;;;7.40;55.70;;;;;;5092253;28;20202;-79
2022/03/14 03:16:26;;;;;;;13.43;10.20;;;7.40;55.80;;;;;;5092515;28;20248;-80
2022/03/14 03:18:53;;;;;;;13.93;8.73;;;7.40;56.00;;;;;;5093021;28;20323;-80
2022/03/14 03:21:20;;;;;;;16.40;9.40;;;7.40;55.70;;;;;;5077160;28;20560;-80
2022/03/14 03:23:46;;;;;;;13.00;9.50;;;7.40;55.90;;;;;;5071696;28;20308;-80
2022/03/14 03:26:13;;;;;;;13.33;9.40;;;7.40;55.60;;;;;;5074367;28;20204;-79
2022/03/14 03:28:40;;;;;;;14.20;9.37;;;7.40;56.00;;;;;;5092031;28;20210;-79
2022/03/14 03:31:10;;;;;;;15.87;9.53;;;7.30;56.10;;;;;;5091841;28;20207;-80
2022/03/14 03:33:42;;;;;;;12.93;9.30;;;7.30;56.00;;;;;;5092185;28;20198;-79
2022/03/14 03:36:10;;;;;;;14.07;9.43;;;7.30;55.80;;;;;;5091796;28;20198;-80
2022/03/14 03:38:37;;;;;;;14.13;10.00;;;7.20;55.80;;;;;;5076363;28;20760;-79
2022/03/14 03:41:04;;;;;;;14.10;9.80;;;7.30;56.10;;;;;;5091831;28;20203;-79
2022/03/14 03:43:31;;;;;;;15.60;10.03;;;7.30;56.10;;;;;;5092112;28;20206;-79
2022/03/14 03:45:58;;;;;;;12.17;9.17;;;7.20;55.90;;;;;;5075483;28;20723;-80
2022/03/14 03:48:26;;;;;;;14.00;9.20;;;7.20;56.00;;;;;;5071673;28;20288;-80
2022/03/14 03:50:53;;;;;;;13.43;9.50;;;7.20;56.30;;;;;;5071119;28;20575;-79
2022/03/14 03:53:20;;;;;;;11.90;8.67;;;7.10;56.30;;;;;;5071423;28;20203;-80
2022/03/14 03:55:46;;;;;;;12.57;9.60;;;7.20;56.40;;;;;;5072213;28;20203;-84
2022/03/14 03:58:13;;;;;;;11.33;9.13;;;7.20;56.30;;;;;;5072157;28;20212;-86
2022/03/14 04:00:40;;;;;;;16.87;10.20;;;7.10;56.30;;;;;;5084190;28;20279;-84
2022/03/14 04:03:07;;;;;;;12.60;8.90;;;7.10;56.60;;;;;;5092141;28;20207;-82
2022/03/14 04:05:36;;;;;;;11.23;9.20;;;7.10;56.40;;;;;;5091504;28;20222;-77
2022/03/14 04:08:05;;;;;;;12.50;9.47;;;7.10;56.40;;;;;;5081440;28;20252;-82
2022/03/14 04:10:31;;;;;;;11.87;9.30;;;7.10;56.30;;;;;;5091018;28;20214;-82
2022/03/14 04:13:03;;;;;;;15.67;9.40;;;7.10;56.30;;;;;;5088781;28;20206;-81
2022/03/14 04:15:30;;;;;;;12.53;9.43;;;7.00;56.70;;;;;;5089477;28;20202;-81
2022/03/14 04:17:58;;;;;;;13.60;9.47;;;7.10;56.60;;;;;;5089054;28;20214;-81
2022/03/14 04:20:25;;;;;;;12.20;9.13;;;7.10;56.30;;;;;;5088472;28;20230;-81
2022/03/14 04:22:53;;;;;;;13.93;9.27;;;7.10;56.30;;;;;;5087886;28;20230;-81
2022/03/14 04:25:19;;;;;;;15.13;9.17;;;7.00;56.40;;;;;;5088686;28;20226;-82
2022/03/14 04:27:46;;;;;;;13.30;9.10;;;7.00;56.20;;;;;;5089016;28;20247;-81
2022/03/14 04:30:13;;;;;;;13.37;9.10;;;7.00;56.50;;;;;;5088562;28;20260;-81
2022/03/14 04:32:40;;;;;;;11.33;8.60;;;7.00;57.30;;;;;;5088976;28;20215;-80
2022/03/14 04:35:08;;;;;;;15.33;9.53;;;7.00;57.30;;;;;;5069312;28;20599;-83
2022/03/14 04:37:35;;;;;;;12.53;8.97;;;6.90;57.00;;;;;;5068331;28;20211;-83
2022/03/14 04:40:03;;;;;;;13.70;9.20;;;6.90;56.50;;;;;;5081414;28;20250;-82
2022/03/14 04:42:30;;;;;;;16.87;10.23;;;6.90;56.70;;;;;;5088346;28;20211;-82
2022/03/14 04:44:57;;;;;;;15.73;9.30;;;6.90;56.50;;;;;;5088415;28;20322;-82
2022/03/14 04:47:25;;;;;;;12.47;9.03;;;6.80;56.60;;;;;;5086321;28;20724;-83
2022/03/14 04:49:52;;;;;;;13.67;9.63;;;6.90;56.50;;;;;;5068423;28;20235;-81
2022/03/14 04:52:21;;;;;;;13.53;9.00;;;6.90;56.40;;;;;;5068664;28;20200;-82
2022/03/14 04:54:48;;;;;;;12.27;9.43;;;6.90;56.40;;;;;;5069035;28;20226;-82
2022/03/14 04:57:17;;;;;;;11.87;8.97;;;6.90;56.40;;;;;;5068215;28;20212;-82
2022/03/14 04:59:43;;;;;;;11.27;8.50;;;6.90;56.50;;;;;;5069140;28;20246;-82
2022/03/14 05:02:12;;;;;;;11.87;9.00;;;6.80;56.40;;;;;;5069694;28;20222;-84
2022/03/14 05:04:38;;;;;;;12.33;9.00;;;6.90;56.40;;;;;;5082133;28;20621;-83
2022/03/14 05:07:07;;;;;;;12.13;8.80;;;6.90;56.40;;;;;;5077898;28;20203;-83
2022/03/14 05:09:34;;;;;;;14.13;9.23;;;6.80;56.40;;;;;;5079155;28;20209;-83
2022/03/14 05:12:00;;;;;;;14.20;9.47;;;6.80;56.60;;;;;;5078879;28;20233;-82
2022/03/14 05:14:30;;;;;;;14.40;8.90;;;6.70;56.60;;;;;;5079859;28;20207;-83
2022/03/14 05:16:57;;;;;;;15.20;9.60;;;6.70;56.40;;;;;;5068610;28;20227;-84
2022/03/14 05:19:24;;;;;;;16.00;9.60;;;6.80;56.60;;;;;;5080640;28;20231;-83
2022/03/14 05:21:50;;;;;;;15.03;9.07;;;6.70;56.70;;;;;;5076750;28;20230;-83
2022/03/14 05:24:17;;;;;;;12.60;9.30;;;6.70;56.90;;;;;;5077049;28;20639;-83
2022/03/14 05:26:45;;;;;;;13.47;8.63;;;6.70;56.90;;;;;;5078426;28;20714;-83
2022/03/14 05:29:14;;;;;;;14.13;9.80;;;6.70;56.90;;;;;;5080568;28;20210;-83
2022/03/14 05:31:42;;;;;;;11.87;9.03;;;6.60;56.80;;;;;;5081278;28;20253;-81
2022/03/14 05:34:09;;;;;;;14.57;9.33;;;6.60;56.70;;;;;;5071022;28;20207;-82
2022/03/14 05:36:36;;;;;;;16.03;9.70;;;6.60;56.80;;;;;;5076754;28;20199;-82
2022/03/14 05:39:03;;;;;;;14.57;9.50;;;6.60;57.50;;;;;;5087225;28;20218;-82
2022/03/14 05:41:30;;;;;;;15.50;9.73;;;6.60;56.80;;;;;;5082484;28;20248;-83
2022/03/14 05:43:56;;;;;;;15.43;9.87;;;6.60;56.80;;;;;;5075265;28;20212;-82
2022/03/14 05:46:23;;;;;;;13.23;9.47;;;6.60;57.20;;;;;;5079542;28;20207;-83
2022/03/14 05:48:51;;;;;;;13.73;9.27;;;6.60;57.20;;;;;;5076314;28;20755;-84
2022/03/14 05:51:18;;;;;;;12.23;9.10;;;6.50;57.30;;;;;;5077820;28;20212;-82
2022/03/14 05:53:44;;;;;;;15.10;9.77;;;6.50;57.50;;;;;;5079631;28;20609;-83
2022/03/14 05:56:11;;;;;;;13.07;9.27;;;6.50;57.80;;;;;;5076735;28;20199;-83
2022/03/14 05:58:37;;;;;;;14.63;9.83;;;6.40;57.50;;;;;;5079547;28;20195;-84
2022/03/14 06:01:04;;;;;;;17.63;10.50;;;6.50;57.60;;;;;;5076554;28;20762;-82
2022/03/14 06:03:31;;;;;;;15.33;9.63;;;6.40;57.60;;;;;;5078490;28;20202;-83
2022/03/14 06:05:59;;;;;;;13.07;9.57;;;6.50;57.70;;;;;;5077237;28;20654;-83
2022/03/14 06:08:26;;;;;;;12.93;9.60;;;6.50;57.70;;;;;;5079706;28;20202;-83
2022/03/14 06:10:54;;;;;;;14.43;9.57;;;6.50;57.60;;;;;;5076440;28;21038;-83
2022/03/14 06:13:20;;;;;;;17.97;9.83;;;6.50;57.60;;;;;;5079675;28;20790;-83
2022/03/14 06:15:47;;;;;;;13.23;9.60;;;6.40;57.60;;;;;;5079461;28;20269;-83
2022/03/14 06:18:14;;;;;;;14.47;9.63;;;6.40;57.70;;;;;;5076766;28;20206;-83
2022/03/14 06:20:41;;;;;;;13.90;8.87;;;6.40;57.60;;;;;;5077411;28;20317;-83
2022/03/14 06:23:09;;;;;;;18.37;10.27;;;6.50;57.60;;;;;;5077751;28;20273;-83
2022/03/14 06:25:36;;;;;;;14.57;9.50;;;6.40;57.80;;;;;;5079071;28;20206;-83
2022/03/14 06:28:03;;;;;;;12.77;9.53;;;6.40;57.90;;;;;;5076703;28;20199;-83
2022/03/14 06:30:30;;;;;;;15.20;9.17;;;6.40;57.70;;;;;;5077959;28;20282;-82
2022/03/14 06:32:57;;;;;;;13.50;9.67;;;6.40;57.80;;;;;;5076907;28;20290;-83
2022/03/14 06:35:23;;;;;;;19.17;10.07;;;6.40;57.60;;;;;;5079120;28;20221;-82
2022/03/14 06:37:50;;;;;;;16.80;9.70;;;6.40;57.70;;;;;;5078256;28;20380;-82
2022/03/14 06:40:18;;;;;;;14.80;9.73;;;6.40;58.80;;;;;;5075957;28;20235;-82
2022/03/14 06:42:48;;;;;;;16.10;9.93;;;6.40;58.00;;;;;;5076372;28;20207;-82
2022/03/14 06:45:19;;;;;;;11.60;9.30;;;6.50;58.10;;;;;;5077800;28;20648;-83
2022/03/14 06:47:46;;;;;;;12.93;8.73;;;6.50;57.70;;;;;;5077415;28;20591;-83
2022/03/14 06:50:13;;;;;;;15.50;9.80;;;6.50;57.80;;;;;;5075689;28;20256;-83
2022/03/14 06:52:40;;;;;;;14.93;9.77;;;6.60;57.80;;;;;;5075426;28;20199;-83
2022/03/14 06:55:07;;;;;;;13.67;9.10;;;6.60;57.60;;;;;;5077773;28;20214;-83
2022/03/14 06:57:36;;;;;;;15.40;9.73;;;6.60;57.70;;;;;;5073142;28;20685;-83
2022/03/14 07:00:03;;;;;;;13.03;9.30;;;6.70;57.70;;;;;;5073023;28;20699;-83
2022/03/14 07:02:30;;;;;;;12.07;8.33;;;6.70;57.20;;;;;;5081225;28;20219;-82
2022/03/14 07:04:57;;;;;;;14.67;9.53;;;6.70;57.10;;;;;;5081491;28;20201;-82
2022/03/14 07:07:23;;;;;;;12.20;8.87;;;6.80;57.30;;;;;;5073940;28;20203;-83
2022/03/14 07:09:50;;;;;;;11.10;8.67;;;6.80;57.10;;;;;;5072937;28;20200;-83
2022/03/14 07:12:16;;;;;;;13.20;9.47;;;6.90;57.00;;;;;;5078290;28;20231;-81
2022/03/14 07:14:44;;;;;;;13.27;9.17;;;6.90;57.20;;;;;;5082132;28;20737;-82
2022/03/14 07:17:11;;;;;;;11.57;8.17;;;6.90;57.30;;;;;;5078024;28;20199;-82
2022/03/14 07:19:42;;;;;;;11.50;8.70;;;7.00;57.10;;;;;;5076014;28;20261;-82
2022/03/14 07:22:09;;;;;;;13.63;9.13;;;7.00;57.50;;;;;;5077398;28;20249;-82
2022/03/14 07:24:36;;;;;;;11.63;9.03;;;7.00;57.10;;;;;;5078962;28;20191;-83
2022/03/14 07:27:02;;;;;;;11.00;8.67;;;7.10;57.20;;;;;;5076780;28;20207;-80
2022/03/14 07:29:29;;;;;;;13.27;8.90;;;7.10;57.80;;;;;;5077745;28;20677;-81
2022/03/14 07:31:57;;;;;;;14.43;8.83;;;7.20;57.70;;;;;;5075779;28;20546;-82
2022/03/14 07:34:24;;;;;;;13.77;9.47;;;7.30;58.00;;;;;;5074884;28;20627;-82
2022/03/14 07:36:50;;;;;;;17.07;9.77;;;7.30;57.30;;;;;;5077584;28;20205;-82
2022/03/14 07:39:17;;;;;;;12.90;8.97;;;7.40;57.20;;;;;;5074905;28;20204;-81
2022/03/14 07:41:44;;;;;;;10.50;8.77;;;7.40;57.10;;;;;;5076750;28;20223;-82
2022/03/14 07:44:11;;;;;;;12.87;8.80;;;7.50;57.20;;;;;;5075914;28;20201;-82
2022/03/14 07:46:38;;;;;;;9.97;8.50;;;7.60;56.90;;;;;;5076319;28;20261;-82
2022/03/14 07:49:07;;;;;;;11.20;8.73;;;7.60;56.70;;;;;;5076159;28;20203;-82
2022/03/14 07:51:34;;;;;;;12.17;8.33;;;7.70;57.10;;;;;;5078337;28;20230;-83
2022/03/14 07:54:00;;;;;;;13.27;8.30;;;7.80;56.90;;;;;;5080243;28;20207;-82
2022/03/14 07:56:27;;;;;;;12.73;9.03;;;7.80;57.00;;;;;;5079706;28;20199;-82
2022/03/14 07:58:54;;;;;;;14.73;9.63;;;7.80;56.80;;;;;;5079148;28;20200;-83
2022/03/14 08:01:22;;;;;;;10.13;8.10;;;7.80;57.30;;;;;;5080157;28;20272;-83
2022/03/14 08:03:49;;;;;;;11.53;7.87;;;7.80;57.10;;;;;;5081467;28;20205;-81
2022/03/14 08:06:23;;;;;;;11.27;7.93;;;7.90;57.50;;;;;;5081214;28;20195;-82
2022/03/14 08:08:50;;;;;;;11.00;7.70;;;7.90;56.90;;;;;;5079144;28;20575;-82
2022/03/14 08:11:17;;;;;;;13.90;7.80;;;7.90;57.00;;;;;;5079478;28;20572;-82
2022/03/14 08:13:45;;;;;;;10.30;7.97;;;8.00;57.40;;;;;;5080000;28;20206;-82
2022/03/14 08:16:12;;;;;;;10.77;8.43;;;8.10;57.90;;;;;;5078839;28;20290;-82
2022/03/14 08:18:40;;;;;;;9.97;8.03;;;8.20;58.00;;;;;;5081334;28;20256;-78
2022/03/14 08:21:07;;;;;;;11.93;7.80;;;8.20;57.60;;;;;;5081836;28;20287;-82
2022/03/14 08:23:36;;;;;;;9.73;7.93;;;8.30;57.80;;;;;;5080662;28;20237;-81
2022/03/14 08:26:07;;;;;;;11.53;7.90;;;8.30;57.10;;;;;;5080367;28;20285;-82
2022/03/14 08:28:34;;;;;;;9.90;7.60;;;8.40;57.50;;;;;;5084530;28;20685;-81
2022/03/14 08:31:05;;;;;;;9.90;7.97;;;8.40;57.40;;;;;;5090543;28;20280;-82
2022/03/14 08:33:33;;;;;;;9.87;8.00;;;8.40;57.70;;;;;;5090703;28;20688;-82
2022/03/14 08:36:01;;;;;;;11.37;8.00;;;8.50;57.10;;;;;;5090451;28;20272;-82
2022/03/14 08:38:29;;;;;;;11.03;8.10;;;8.60;57.90;;;;;;5090700;28;20290;-82
2022/03/14 08:40:58;;;;;;;12.83;8.37;;;8.70;56.80;;;;;;5090475;28;20226;-82
2022/03/14 08:43:25;;;;;;;8.97;7.70;;;8.70;56.60;;;;;;5089980;28;20210;-82
2022/03/14 08:45:52;;;;;;;9.80;7.33;;;8.80;57.10;;;;;;5090369;28;20234;-82
2022/03/14 08:48:19;;;;;;;10.70;7.87;;;8.80;57.30;;;;;;5080397;28;20231;-80
2022/03/14 08:50:46;;;;;;;9.97;8.00;;;8.90;57.20;;;;;;5090211;28;20202;-80
2022/03/14 08:53:13;;;;;;;10.37;7.93;;;8.90;56.30;;;;;;5089961;28;20644;-80
2022/03/14 08:55:40;;;;;;;10.57;7.37;;;9.00;56.60;;;;;;5087055;28;20238;-81
2022/03/14 08:58:08;;;;;;;11.40;7.67;;;9.00;56.20;;;;;;5078093;28;20265;-81
2022/03/14 09:00:38;;;;;;;11.47;7.50;;;9.10;56.60;;;;;;5077895;28;20239;-80
2022/03/14 09:03:06;;;;;;;8.37;7.00;;;9.20;56.40;;;;;;5079454;28;20191;-80
2022/03/14 09:05:33;;;;;;;9.37;7.53;;;9.20;55.00;;;;;;5080281;28;20214;-81
2022/03/14 09:08:00;;;;;;;8.53;7.17;;;9.30;56.20;;;;;;5079796;28;20665;-81
2022/03/14 09:10:27;;;;;;;7.73;6.93;;;9.40;56.40;;;;;;5079926;28;20249;-81
2022/03/14 09:12:55;;;;;;;10.90;7.10;;;9.50;55.70;;;;;;5078094;28;20675;-81
2022/03/14 09:15:24;;;;;;;9.63;7.30;;;9.50;55.60;;;;;;5082536;28;20218;-80
2022/03/14 09:17:54;;;;;;;11.27;8.03;;;9.60;56.50;;;;;;5089695;28;20269;-80
2022/03/14 09:20:21;;;;;;;8.20;7.27;;;9.70;55.30;;;;;;5086640;28;20226;-81
2022/03/14 09:22:48;;;;;;;9.70;7.10;;;9.70;55.60;;;;;;5077886;28;20234;-81
2022/03/14 09:25:16;;;;;;;10.53;7.70;;;9.80;55.50;;;;;;5080962;28;20229;-81
2022/03/14 09:27:44;;;;;;;9.77;7.10;;;9.90;55.30;;;;;;5078727;28;20680;-81
2022/03/14 09:30:12;;;;;;;8.33;7.27;;;9.90;54.40;;;;;;5071346;28;20306;-81
2022/03/14 09:32:42;;;;;;;7.17;6.43;;;10.00;54.20;;;;;;5077913;28;20203;-81
2022/03/14 09:35:10;;;;;;;7.67;6.63;;;10.00;54.60;;;;;;5080615;28;20203;-81
2022/03/14 09:37:38;;;;;;;9.33;6.57;;;10.20;54.40;;;;;;5080604;28;20260;-81
2022/03/14 09:40:07;;;;;;;8.17;7.37;;;10.20;54.30;;;;;;5084147;28;20294;-80
2022/03/14 09:42:36;;;;;;;8.60;6.93;;;10.30;55.20;;;;;;5073631;28;20196;-80
2022/03/14 09:45:05;;;;;;;8.10;6.80;;;10.30;54.90;;;;;;5082246;28;20575;-83
2022/03/14 09:47:37;;;;;;;7.90;6.70;;;10.40;54.10;;;;;;5073595;28;20245;-82
2022/03/14 09:50:08;;;;;;;7.60;6.87;;;10.40;55.00;;;;;;5081266;28;20617;-82
2022/03/14 09:52:37;;;;;;;7.90;6.73;;;10.50;55.40;;;;;;5079922;28;20199;-82
2022/03/14 09:55:06;;;;;;;7.13;6.50;;;10.60;54.50;;;;;;5079501;28;20202;-82
2022/03/14 09:57:34;;;;;;;9.47;7.70;;;10.70;53.60;;;;;;5076015;28;20915;-82
2022/03/14 10:00:00;;;;;;;10.37;6.63;;;10.80;54.20;;;;;;5074353;28;20200;-83
2022/03/14 10:02:29;;;;;;;8.50;6.67;;;10.90;53.70;;;;;;5075086;28;20231;-83
2022/03/14 10:04:56;;;;;;;8.50;6.43;;;10.90;53.60;;;;;;5075970;28;20200;-82
2022/03/14 10:07:24;;;;;;;7.80;7.10;;;11.00;53.40;;;;;;5080749;28;20191;-83
2022/03/14 10:09:51;;;;;;;7.90;6.90;;;11.00;53.20;;;;;;5076088;28;20203;-83
2022/03/14 10:12:20;;;;;;;7.23;6.53;;;11.10;53.40;;;;;;5080191;28;20669;-83
2022/03/14 10:14:47;;;;;;;7.57;6.77;;;11.20;53.80;;;;;;5076667;28;20289;-83
2022/03/14 10:17:14;;;;;;;7.60;6.63;;;11.30;54.60;;;;;;5075559;28;20207;-82
2022/03/14 10:19:41;;;;;;;9.67;6.60;;;11.40;55.40;;;;;;5079129;28;20202;-83
2022/03/14 10:22:15;;;;;;;7.67;6.43;;;11.40;54.00;;;;;;5078832;28;20243;-82
2022/03/14 10:24:44;;;;;;;8.30;7.03;;;11.50;53.60;;;;;;5067164;28;20208;-83
2022/03/14 10:27:12;;;;;;;8.07;6.97;;;11.60;54.30;;;;;;5075964;28;20985;-82
2022/03/14 10:29:39;;;;;;;7.70;6.90;;;11.60;54.80;;;;;;5079115;28;20314;-82
2022/03/14 10:32:28;;;;;;;6.83;6.23;;;11.70;55.40;;;;;;5075902;28;20693;-82
2022/03/14 10:34:58;;;;;;;15.57;7.03;;;11.80;54.40;;;;;;5075588;28;20214;-82
2022/03/14 10:37:27;;;;;;;7.50;6.77;;;11.90;54.50;;;;;;5077642;28;20254;-83
2022/03/14 10:40:03;;;;;;;7.07;6.37;;;12.00;53.80;;;;;;5074772;28;20788;-82
2022/03/14 10:42:38;;;;;;;7.47;6.50;;;12.10;54.20;;;;;;5076212;28;20228;-83
2022/03/14 10:45:11;;;;;;;8.13;6.40;;;12.10;53.70;;;;;;5080609;28;20210;-82
2022/03/14 10:47:44;;;;;;;7.23;6.63;;;12.20;52.60;;;;;;5079217;28;20255;-82
2022/03/14 10:50:29;;;;;;;7.17;6.07;;;12.20;53.50;;;;;;5076442;28;20390;-82
2022/03/14 10:53:04;;;;;;;7.23;6.10;;;12.30;54.20;;;;;;5079412;28;20710;-82
2022/03/14 10:55:41;;;;;;;8.37;5.87;;;12.40;54.60;;;;;;5076495;28;20222;-81
2022/03/14 10:58:09;;;;;;;6.87;6.17;;;12.40;55.10;;;;;;5077438;28;20202;-83
2022/03/14 11:00:50;;;;;;;7.30;6.23;;;12.60;56.20;;;;;;5075039;28;20598;-82
2022/03/14 11:03:23;;;;;;;6.90;6.23;;;12.70;54.80;;;;;;5076555;28;20637;-83
2022/03/14 11:05:50;;;;;;;6.83;6.10;;;12.70;55.20;;;;;;5086758;28;20191;-81
2022/03/14 11:08:27;;;;;;;8.43;6.47;;;12.60;53.20;;;;;;5075751;28;20680;-82
2022/03/14 11:10:55;;;;;;;6.47;5.87;;;12.60;54.10;;;;;;5075910;28;20291;-82
2022/03/14 11:13:22;;;;;;;6.50;5.90;;;12.70;53.70;;;;;;5066872;28;20210;-82
2022/03/14 11:15:49;;;;;;;7.17;6.47;;;12.80;54.60;;;;;;5076323;28;20206;-82
2022/03/14 11:18:17;;;;;;;8.30;6.40;;;12.90;53.90;;;;;;5078229;28;20535;-81
2022/03/14 11:20:45;;;;;;;6.53;5.93;;;12.70;53.00;;;;;;5077478;28;20209;-81
2022/03/14 11:23:13;;;;;;;6.73;6.13;;;12.60;54.20;;;;;;5077435;28;20234;-82
2022/03/14 11:25:44;;;;;;;7.07;6.10;;;12.70;53.90;;;;;;5077051;28;20716;-82
2022/03/14 11:28:15;;;;;;;6.40;5.80;;;12.70;52.90;;;;;;5080428;28;20224;-82
2022/03/14 11:30:44;;;;;;;6.63;6.03;;;12.90;55.00;;;;;;5070470;28;20195;-81
2022/03/14 11:33:13;;;;;;;6.73;5.93;;;13.10;55.60;;;;;;5070389;28;20204;-81
2022/03/14 11:35:40;;;;;;;6.97;6.13;;;13.30;55.60;;;;;;5070324;28;20669;-81
2022/03/14 11:38:08;;;;;;;7.27;6.53;;;13.30;54.40;;;;;;5075673;28;20199;-81
2022/03/14 11:40:36;;;;;;;8.17;6.37;;;13.40;55.00;;;;;;5081418;28;20207;-81
2022/03/14 11:43:04;;;;;;;7.40;6.33;;;13.60;55.20;;;;;;5080937;28;20202;-81
2022/03/14 11:45:32;;;;;;;6.70;6.10;;;13.70;55.50;;;;;;5081051;28;20225;-82
2022/03/14 11:48:00;;;;;;;8.47;6.80;;;13.80;55.50;;;;;;5079109;28;20226;-82
2022/03/14 11:50:26;;;;;;;11.90;7.23;;;13.90;53.90;;;;;;5079013;28;20207;-82
2022/03/14 11:52:55;;;;;;;7.83;6.90;;;13.90;53.00;;;;;;5080206;28;20212;-82
2022/03/14 11:55:24;;;;;;;7.20;6.53;;;13.80;53.00;;;;;;5079811;28;20231;-82
2022/03/14 11:57:51;;;;;;;7.53;6.73;;;13.60;53.00;;;;;;5079449;28;20690;-82
2022/03/14 12:00:36;;;;;;;7.53;6.67;;;13.80;54.80;;;;;;5081661;28;20615;-82
2022/03/14 12:03:06;;;;;;;7.53;6.83;;;13.90;55.60;;;;;;5070021;28;20218;-82
2022/03/14 12:05:49;;;;;;;8.73;7.20;;;13.90;54.40;;;;;;5070476;28;20211;-82
2022/03/14 12:08:59;;;;;;;7.57;6.87;;;13.80;54.50;;;;;;5078725;28;20211;-82
2022/03/14 12:11:43;;;;;;;7.03;6.40;;;13.60;54.80;;;;;;5080318;28;20214;-82
2022/03/14 12:14:14;;;;;;;8.63;7.50;;;13.50;54.40;;;;;;5079924;28;20215;-82
2022/03/14 12:16:44;;;;;;;8.20;7.47;;;13.50;55.10;;;;;;5079702;28;20192;-82
2022/03/14 12:19:33;;;;;;;8.30;7.43;;;13.50;53.90;;;;;;5080064;28;20319;-81
2022/03/14 12:22:02;;;;;;;11.63;6.90;;;13.40;56.20;;;;;;5069143;28;20672;-82
2022/03/14 12:24:48;;;;;;;7.73;7.03;;;13.40;56.00;;;;;;5069972;28;20192;-80
2022/03/14 12:27:20;;;;;;;10.23;6.97;;;13.40;60.10;;;;;;5078191;28;20293;-81
2022/03/14 12:29:48;;;;;;;8.33;7.23;;;13.40;58.90;;;;;;5081049;28;20599;-80
2022/03/14 12:32:31;;;;;;;11.10;7.53;;;13.50;57.10;;;;;;5080862;28;20203;-80
2022/03/14 12:35:01;;;;;;;9.53;6.57;;;13.40;59.80;;;;;;5080609;28;20268;-79
2022/03/14 12:37:37;;;;;;;12.03;7.47;;;13.30;57.10;;;;;;5078500;28;20253;-80
2022/03/14 12:40:05;;;;;;;7.87;7.17;;;13.20;56.00;;;;;;5078223;28;20657;-81
2022/03/14 12:42:39;;;;;;;8.47;6.70;;;13.20;56.70;;;;;;5081740;28;20230;-82
2022/03/14 12:45:21;;;;;;;7.67;6.97;;;13.20;55.10;;;;;;5074659;28;20560;-83
2022/03/14 12:47:55;;;;;;;10.33;7.27;;;13.20;54.90;;;;;;5077473;28;20226;-82
2022/03/14 12:50:59;;;;;;;8.10;7.30;;;13.40;55.80;;;;;;5080262;28;20191;-83
2022/03/14 12:53:45;;;;;;;7.73;7.03;;;13.80;55.40;;;;;;5079440;28;20199;-81